createdAt,value
2022-12-03T00:02:02.741Z,79.61
2022-12-03T00:04:46.250Z,79.17
2022-12-03T00:07:29.875Z,79.16
2022-12-03T00:10:13.436Z,79.86
2022-12-03T00:12:56.950Z,80.11
2022-12-03T00:15:40.600Z,79.69
2022-12-03T00:18:24.129Z,79.66
2022-12-03T00:21:07.784Z,79.70
2022-12-03T00:23:51.726Z,79.66
2022-12-03T00:26:35.204Z,78.55
2022-12-03T00:29:18.711Z,78.60
2022-12-03T00:32:02.242Z,79.19
2022-12-03T00:34:45.811Z,79.26
2022-12-03T00:37:29.574Z,78.64
2022-12-03T00:40:13.539Z,78.48
2022-12-03T00:42:57.024Z,79.01
2022-12-03T00:45:40.478Z,79.12
2022-12-03T00:48:24.147Z,78.12
2022-12-03T00:51:07.585Z,79.00
2022-12-03T00:53:51.013Z,78.65
2022-12-03T00:56:34.467Z,78.70
2022-12-03T00:59:17.907Z,78.35
2022-12-03T01:02:01.412Z,78.69
2022-12-03T01:04:44.934Z,78.72
2022-12-03T01:07:28.779Z,78.37
2022-12-03T01:10:13.185Z,77.33
2022-12-03T01:12:56.682Z,78.87
2022-12-03T01:15:40.122Z,78.29
2022-12-03T01:18:23.591Z,78.00
2022-12-03T01:21:07.096Z,78.37
2022-12-03T01:23:50.543Z,78.04
2022-12-03T01:26:33.997Z,77.96
2022-12-03T01:29:17.580Z,77.18
2022-12-03T01:32:19.621Z,78.86
2022-12-03T01:35:04.193Z,78.32
2022-12-03T01:37:47.611Z,77.86
2022-12-03T01:40:31.119Z,78.43
2022-12-03T01:43:14.637Z,77.71
2022-12-03T01:45:58.134Z,77.81
2022-12-03T01:48:41.872Z,78.51
2022-12-03T01:51:25.372Z,78.58
2022-12-03T01:54:20.467Z,78.39
2022-12-03T01:57:04.410Z,78.53
2022-12-03T01:59:49.321Z,78.20
2022-12-03T02:02:33.406Z,78.42
2022-12-03T02:05:26.355Z,78.52
2022-12-03T02:08:37.085Z,78.82
2022-12-03T02:11:35.623Z,77.81
2022-12-03T02:14:21.967Z,77.65
2022-12-03T02:17:05.529Z,78.17
2022-12-03T02:19:49.859Z,78.03
2022-12-03T02:22:48.470Z,78.34
2022-12-03T02:25:35.759Z,78.35
2022-12-03T02:28:19.231Z,78.00
2022-12-03T02:31:02.807Z,77.62
2022-12-03T02:33:46.422Z,78.52
2022-12-03T02:36:29.910Z,78.44
2022-12-03T02:39:13.318Z,78.65
2022-12-03T02:42:15.785Z,78.39
2022-12-03T02:45:05.464Z,77.89
2022-12-03T02:48:00.703Z,77.74
2022-12-03T02:51:01.287Z,77.35
2022-12-03T02:53:49.946Z,77.54
2022-12-03T02:56:33.640Z,77.80
2022-12-03T02:59:17.504Z,78.45
2022-12-03T03:02:01.367Z,77.75
2022-12-03T03:04:45.209Z,77.49
2022-12-03T03:07:28.938Z,77.50
2022-12-03T03:10:17.102Z,77.63
2022-12-03T03:13:07.180Z,77.13
2022-12-03T03:15:50.722Z,77.57
2022-12-03T03:18:35.521Z,77.54
2022-12-03T03:21:19.769Z,77.51
2022-12-03T03:24:03.847Z,77.80
2022-12-03T03:26:47.874Z,77.57
2022-12-03T03:29:33.450Z,78.40
2022-12-03T03:32:16.967Z,77.60
2022-12-03T03:35:01.127Z,78.43
2022-12-03T03:37:44.830Z,78.21
2022-12-03T03:40:29.294Z,77.80
2022-12-03T03:43:13.915Z,77.68
2022-12-03T03:45:57.651Z,77.43
2022-12-03T03:48:43.628Z,78.03
2022-12-03T03:51:27.719Z,77.49
2022-12-03T03:54:11.583Z,77.68
2022-12-03T03:56:55.052Z,78.17
2022-12-03T03:59:38.850Z,77.63
2022-12-03T04:02:26.430Z,78.37
2022-12-03T04:05:20.200Z,78.02
2022-12-03T04:08:03.841Z,78.14
2022-12-03T04:11:05.805Z,78.43
2022-12-03T04:13:49.270Z,78.54
2022-12-03T04:16:32.871Z,78.35
2022-12-03T04:19:16.376Z,78.43
2022-12-03T04:22:18.310Z,78.44
2022-12-03T04:25:20.103Z,78.50
2022-12-03T04:28:22.058Z,78.57
2022-12-03T04:31:26.142Z,79.02
2022-12-03T04:34:29.643Z,79.51
2022-12-03T04:37:13.160Z,79.90
2022-12-03T04:39:56.595Z,80.21
2022-12-03T04:42:40.004Z,80.57
2022-12-03T04:45:23.534Z,80.26
2022-12-03T04:48:07.023Z,80.53
2022-12-03T04:50:50.467Z,80.81
2022-12-03T04:53:36.195Z,81.39
2022-12-03T04:56:19.784Z,81.82
2022-12-03T04:59:04.133Z,81.89
2022-12-03T05:01:47.682Z,81.71
2022-12-03T05:04:31.264Z,82.31
2022-12-03T05:07:14.694Z,82.60
2022-12-03T05:09:58.114Z,82.41
2022-12-03T05:12:41.594Z,82.42
2022-12-03T05:15:25.118Z,82.95
2022-12-03T05:18:08.595Z,82.21
2022-12-03T05:20:53.734Z,82.13
2022-12-03T05:23:37.323Z,82.29
2022-12-03T05:26:20.746Z,82.94
2022-12-03T05:29:04.210Z,82.49
2022-12-03T05:31:47.667Z,82.62
2022-12-03T05:34:31.215Z,82.54
2022-12-03T05:37:14.703Z,82.23
2022-12-03T05:39:58.263Z,82.02
2022-12-03T05:42:53.625Z,81.79
2022-12-03T05:45:40.663Z,82.64
2022-12-03T05:48:24.266Z,83.35
2022-12-03T05:51:07.779Z,83.06
2022-12-03T05:53:51.233Z,82.90
2022-12-03T05:56:34.681Z,82.94
2022-12-03T05:59:18.134Z,83.56
2022-12-03T06:02:01.916Z,83.07
2022-12-03T06:04:45.403Z,82.71
2022-12-03T06:07:28.935Z,83.57
2022-12-03T06:10:17.729Z,83.78
2022-12-03T06:13:02.197Z,83.13
2022-12-03T06:15:48.380Z,82.60
2022-12-03T06:18:32.098Z,82.91
2022-12-03T06:21:15.577Z,82.48
2022-12-03T06:24:00.017Z,81.90
2022-12-03T06:26:43.478Z,82.94
2022-12-03T06:29:26.967Z,83.24
2022-12-03T06:32:10.692Z,84.42
2022-12-03T06:34:54.472Z,85.14
2022-12-03T06:37:38.280Z,84.64
2022-12-03T06:40:21.816Z,84.50
2022-12-03T06:43:05.784Z,83.57
2022-12-03T06:45:49.261Z,84.14
2022-12-03T06:48:32.729Z,85.42
2022-12-03T06:51:16.257Z,85.35
2022-12-03T06:53:59.729Z,85.93
2022-12-03T06:56:45.432Z,85.84
2022-12-03T06:59:29.009Z,84.80
2022-12-03T07:02:12.848Z,84.72
2022-12-03T07:04:56.738Z,84.36
2022-12-03T07:07:40.493Z,85.16
2022-12-03T07:10:24.106Z,85.84
2022-12-03T07:13:07.626Z,85.76
2022-12-03T07:15:51.105Z,85.52
2022-12-03T07:18:34.590Z,85.41
2022-12-03T07:21:18.189Z,85.08
2022-12-03T07:24:01.781Z,84.73
2022-12-03T07:26:45.485Z,85.28
2022-12-03T07:29:29.615Z,86.45
2022-12-03T07:32:13.093Z,85.21
2022-12-03T07:34:56.639Z,85.53
2022-12-03T07:37:40.133Z,84.99
2022-12-03T07:40:23.736Z,84.54
2022-12-03T07:43:07.284Z,84.69
2022-12-03T07:45:50.910Z,85.26
2022-12-03T07:48:34.474Z,85.42
2022-12-03T07:51:17.992Z,85.12
2022-12-03T07:54:01.471Z,84.69
2022-12-03T07:56:44.974Z,85.47
2022-12-03T07:59:29.649Z,85.08
2022-12-03T08:02:19.539Z,84.72
2022-12-03T08:05:05.280Z,84.65
2022-12-03T08:07:49.018Z,84.80
2022-12-03T08:10:32.652Z,84.53
2022-12-03T08:13:18.981Z,84.44
2022-12-03T08:16:19.220Z,84.63
2022-12-03T08:19:09.683Z,84.84
2022-12-03T08:21:57.974Z,85.54
2022-12-03T08:24:44.832Z,85.06
2022-12-03T08:27:28.351Z,84.93
2022-12-03T08:30:15.297Z,84.91
2022-12-03T08:32:59.451Z,84.98
2022-12-03T08:35:50.102Z,85.09
2022-12-03T08:38:33.880Z,84.50
2022-12-03T08:41:38.495Z,85.81
2022-12-03T08:44:38.561Z,84.84
2022-12-03T08:47:24.293Z,84.94
2022-12-03T08:50:28.059Z,85.14
2022-12-03T08:53:14.456Z,84.33
2022-12-03T08:56:06.475Z,84.35
2022-12-03T08:58:53.773Z,84.32
2022-12-03T09:01:48.982Z,83.48
2022-12-03T09:04:48.250Z,85.17
2022-12-03T09:07:31.816Z,85.69
2022-12-03T09:10:15.720Z,85.42
2022-12-03T09:12:59.290Z,85.82
2022-12-03T09:15:42.769Z,84.73
2022-12-03T09:18:26.261Z,84.35
2022-12-03T09:21:09.740Z,83.42
2022-12-03T09:23:53.229Z,83.85
2022-12-03T09:26:36.708Z,84.92
2022-12-03T09:29:20.207Z,84.65
2022-12-03T09:32:04.222Z,84.60
2022-12-03T09:34:47.798Z,84.14
2022-12-03T09:37:31.257Z,84.20
2022-12-03T09:40:15.240Z,83.92
2022-12-03T09:42:58.798Z,83.54
2022-12-03T09:45:46.350Z,84.28
2022-12-03T09:48:30.095Z,84.14
2022-12-03T09:51:14.226Z,83.89
2022-12-03T09:54:01.024Z,83.15
2022-12-03T09:56:44.535Z,85.72
2022-12-03T09:59:32.828Z,84.28
2022-12-03T10:02:30.711Z,84.10
2022-12-03T10:05:15.579Z,83.62
2022-12-03T10:08:13.195Z,83.18
2022-12-03T10:10:57.039Z,84.41
2022-12-03T10:13:41.684Z,84.62
2022-12-03T10:16:27.964Z,85.17
2022-12-03T10:19:26.100Z,84.65
2022-12-03T10:22:09.691Z,85.69
2022-12-03T10:25:21.951Z,84.54
2022-12-03T10:28:05.412Z,84.03
2022-12-03T10:30:55.701Z,84.43
2022-12-03T10:33:47.332Z,84.63
2022-12-03T10:36:30.924Z,84.33
2022-12-03T10:39:17.129Z,83.64
2022-12-03T10:42:16.246Z,83.54
2022-12-03T10:45:13.516Z,82.78
2022-12-03T10:48:27.442Z,83.43
2022-12-03T10:51:21.276Z,83.86
2022-12-03T10:54:19.417Z,83.63
2022-12-03T10:57:03.165Z,83.85
2022-12-03T10:59:46.651Z,83.70
2022-12-03T11:02:30.162Z,83.20
2022-12-03T11:05:17.466Z,83.23
2022-12-03T11:08:01.156Z,83.16
2022-12-03T11:10:44.935Z,83.10
2022-12-03T11:13:34.418Z,83.13
2022-12-03T11:16:39.868Z,82.69
2022-12-03T11:19:45.082Z,82.96
2022-12-03T11:22:45.943Z,82.52
2022-12-03T11:25:29.441Z,82.84
2022-12-03T11:28:15.629Z,82.84
2022-12-03T11:31:11.805Z,81.71
2022-12-03T11:34:21.149Z,82.55
2022-12-03T11:37:10.803Z,83.45
2022-12-03T11:40:26.677Z,83.45
2022-12-03T11:43:10.860Z,83.23
2022-12-03T11:45:56.281Z,83.13
2022-12-03T11:48:45.905Z,83.24
2022-12-03T11:51:30.717Z,83.14
2022-12-03T11:54:18.884Z,83.34
2022-12-03T11:57:03.110Z,82.68
2022-12-03T12:16:55.878Z,83.59
2022-12-03T12:19:45.097Z,82.78
2022-12-03T12:22:31.559Z,82.38
2022-12-03T12:25:54.229Z,83.01
2022-12-03T12:28:38.027Z,84.37
2022-12-03T12:31:21.927Z,84.28
2022-12-03T12:34:12.702Z,83.67
2022-12-03T12:37:02.176Z,83.54
2022-12-03T12:39:46.568Z,83.67
2022-12-03T12:42:43.969Z,83.38
2022-12-03T12:45:31.033Z,84.39
2022-12-03T12:48:32.214Z,83.91
2022-12-03T12:51:22.097Z,83.48
2022-12-03T12:54:14.224Z,83.70
2022-12-03T12:56:57.654Z,83.29
2022-12-03T12:59:41.586Z,83.77
2022-12-03T13:02:31.029Z,83.58
2022-12-03T13:05:14.829Z,83.64
2022-12-03T13:07:58.425Z,83.71
2022-12-03T13:10:42.561Z,84.26
2022-12-03T13:13:43.535Z,83.80
2022-12-03T13:16:34.092Z,82.94
2022-12-03T13:19:24.448Z,83.04
2022-12-03T13:22:19.843Z,82.89
2022-12-03T13:28:44.456Z,84.33
2022-12-03T13:31:41.968Z,84.09
2022-12-03T13:34:33.468Z,83.64
2022-12-03T13:37:21.438Z,83.07
2022-12-03T13:40:23.074Z,83.99
2022-12-03T13:43:18.710Z,83.58
2022-12-03T13:46:02.265Z,84.34
2022-12-03T13:48:45.954Z,82.99
2022-12-03T13:51:33.424Z,82.87
2022-12-03T13:54:26.615Z,82.73
2022-12-03T13:57:10.460Z,83.83
2022-12-03T13:59:54.764Z,83.14
2022-12-03T14:02:38.479Z,83.68
2022-12-03T14:05:22.086Z,83.29
2022-12-03T14:08:06.303Z,83.44
2022-12-03T14:10:50.175Z,83.75
2022-12-03T14:13:35.647Z,83.39
2022-12-03T14:16:19.158Z,83.66
2022-12-03T14:19:02.819Z,84.45
2022-12-03T14:21:46.292Z,84.21
2022-12-03T14:24:29.954Z,85.05
2022-12-03T14:27:13.524Z,84.60
2022-12-03T14:29:57.395Z,83.43
2022-12-03T14:32:40.987Z,83.73
2022-12-03T14:35:24.432Z,84.23
2022-12-03T14:38:07.842Z,84.38
2022-12-03T14:40:51.444Z,83.57
2022-12-03T14:43:34.859Z,84.64
2022-12-03T14:46:18.467Z,84.30
2022-12-03T14:49:01.987Z,83.66
2022-12-03T14:51:45.398Z,83.68
2022-12-03T14:54:29.043Z,84.33
2022-12-03T14:57:14.931Z,86.04
2022-12-03T14:59:58.405Z,85.97
2022-12-03T15:02:41.887Z,85.92
2022-12-03T15:05:28.738Z,85.35
2022-12-03T15:08:12.675Z,85.41
2022-12-03T15:10:56.487Z,85.00
2022-12-03T15:13:40.002Z,85.84
2022-12-03T15:16:23.885Z,85.65
2022-12-03T15:19:07.584Z,85.41
2022-12-03T15:21:51.038Z,85.01
2022-12-03T15:24:34.490Z,85.76
2022-12-03T15:27:17.957Z,85.27
2022-12-03T15:30:01.417Z,84.93
2022-12-03T15:32:44.870Z,84.02
2022-12-03T15:35:30.334Z,84.56
2022-12-03T15:38:13.921Z,84.14
2022-12-03T15:40:58.087Z,84.97
2022-12-03T15:43:41.495Z,85.37
2022-12-03T15:46:27.833Z,85.75
2022-12-03T15:49:11.656Z,86.01
2022-12-03T15:51:55.231Z,86.06
2022-12-03T15:54:38.719Z,85.57
2022-12-03T15:57:22.246Z,86.10
2022-12-03T16:00:07.219Z,86.35
2022-12-03T16:02:55.675Z,86.21
2022-12-03T16:05:39.273Z,86.57
2022-12-03T16:08:22.917Z,86.76
2022-12-03T16:11:06.698Z,86.53
2022-12-03T16:13:50.231Z,86.80
2022-12-03T16:16:33.877Z,86.21
2022-12-03T16:19:17.420Z,86.98
2022-12-03T16:22:00.843Z,86.56
2022-12-03T16:24:44.705Z,86.70
2022-12-03T16:27:28.153Z,87.17
2022-12-03T16:30:12.631Z,86.94
2022-12-03T16:32:56.132Z,87.46
2022-12-03T16:35:39.681Z,87.02
2022-12-03T16:38:23.125Z,87.39
2022-12-03T16:41:06.667Z,86.20
2022-12-03T16:43:50.309Z,86.05
2022-12-03T16:46:34.054Z,86.93
2022-12-03T16:49:17.547Z,87.24
2022-12-03T16:52:01.073Z,86.71
2022-12-03T16:54:44.604Z,86.58
2022-12-03T16:57:33.387Z,86.70
2022-12-03T17:00:17.614Z,86.62
2022-12-03T17:03:01.195Z,87.04
2022-12-03T17:05:45.440Z,86.54
2022-12-03T17:08:29.072Z,86.70
2022-12-03T17:11:12.607Z,86.60
2022-12-03T17:13:56.132Z,86.88
2022-12-03T17:16:39.607Z,86.35
2022-12-03T17:19:23.079Z,86.48
2022-12-03T17:22:06.762Z,85.99
2022-12-03T17:24:50.180Z,86.53
2022-12-03T17:27:33.650Z,86.46
2022-12-03T17:30:17.909Z,85.92
2022-12-03T17:33:01.750Z,85.64
2022-12-03T17:35:46.577Z,85.25
2022-12-03T17:38:35.637Z,85.10
2022-12-03T17:41:22.539Z,86.27
2022-12-03T17:44:10.731Z,86.22
2022-12-03T17:46:55.712Z,85.95
2022-12-03T17:49:39.225Z,86.93
2022-12-03T17:52:22.727Z,86.76
2022-12-03T17:55:13.949Z,86.02
2022-12-03T17:58:01.440Z,86.19
2022-12-03T18:00:45.254Z,86.38
2022-12-03T18:03:28.806Z,85.85
2022-12-03T18:06:12.424Z,86.21
2022-12-03T18:08:55.970Z,86.55
2022-12-03T18:11:39.520Z,86.45
2022-12-03T18:14:22.984Z,86.41
2022-12-03T18:48:56.881Z,85.99
2022-12-03T18:51:48.315Z,87.11
2022-12-03T18:54:37.748Z,86.67
2022-12-03T18:57:24.426Z,86.46
2022-12-03T19:00:13.884Z,86.92
2022-12-03T19:03:05.192Z,86.13
2022-12-03T19:05:48.761Z,85.73
2022-12-03T19:08:32.216Z,86.15
2022-12-03T19:11:15.793Z,86.00
2022-12-03T19:13:59.652Z,86.08
2022-12-03T19:16:44.652Z,85.49
2022-12-03T19:19:29.864Z,85.92
2022-12-03T19:22:13.623Z,86.34
2022-12-03T19:24:57.236Z,86.65
2022-12-03T19:27:40.863Z,86.44
2022-12-03T19:30:24.630Z,86.01
2022-12-03T19:33:08.176Z,86.32
2022-12-03T19:35:51.683Z,86.30
2022-12-03T19:38:35.726Z,85.54
2022-12-03T19:41:20.821Z,86.01
2022-12-03T19:44:10.610Z,87.30
2022-12-03T19:46:54.464Z,86.54
2022-12-03T19:49:37.916Z,87.05
2022-12-03T19:52:21.346Z,86.22
2022-12-03T19:55:05.476Z,85.82
2022-12-03T19:57:49.078Z,85.76
2022-12-03T20:00:34.258Z,86.45
2022-12-03T20:03:17.760Z,85.51
2022-12-03T20:06:02.138Z,85.81
2022-12-03T20:08:46.356Z,86.24
2022-12-03T20:11:33.471Z,85.91
2022-12-03T20:14:18.076Z,86.13
2022-12-03T20:17:01.810Z,86.93
2022-12-03T20:19:45.523Z,85.85
2022-12-03T20:22:28.955Z,86.34
2022-12-03T20:25:12.518Z,87.27
2022-12-03T20:27:56.126Z,86.41
2022-12-03T20:30:39.588Z,86.67
2022-12-03T20:33:23.094Z,87.00
2022-12-03T20:36:08.055Z,87.08
2022-12-03T20:38:57.465Z,87.05
2022-12-03T20:41:40.967Z,86.99
2022-12-03T20:44:24.464Z,86.53
2022-12-03T20:47:08.276Z,86.54
2022-12-03T20:49:52.091Z,85.81
2022-12-03T20:52:35.862Z,86.40
2022-12-03T20:55:19.351Z,86.56
2022-12-03T20:58:03.821Z,86.00
2022-12-03T21:00:47.526Z,86.62
2022-12-03T21:03:31.188Z,86.19
2022-12-03T21:06:16.065Z,86.20
2022-12-03T21:09:00.895Z,85.60
2022-12-03T21:11:44.559Z,85.61
2022-12-03T21:14:28.349Z,86.24
2022-12-03T21:17:11.950Z,86.99
2022-12-03T21:19:56.131Z,86.52
2022-12-03T21:22:39.882Z,86.77
2022-12-03T21:25:23.597Z,85.68
2022-12-03T21:28:09.483Z,85.69
2022-12-03T21:30:53.134Z,86.53
2022-12-03T21:33:37.544Z,86.85
2022-12-03T21:36:21.743Z,86.53
2022-12-03T21:39:06.311Z,87.01
2022-12-03T21:42:22.158Z,86.13
2022-12-03T21:44:53.741Z,86.57
2022-12-03T21:47:37.852Z,86.96
2022-12-03T21:50:21.659Z,87.61
2022-12-03T21:53:05.390Z,87.07
2022-12-03T21:55:49.247Z,85.96
2022-12-03T21:58:33.549Z,85.91
2022-12-03T22:01:23.562Z,85.93
2022-12-03T22:04:07.084Z,85.98
2022-12-03T22:06:50.563Z,86.11
2022-12-03T22:09:34.179Z,86.78
2022-12-03T22:12:17.626Z,87.63
2022-12-03T22:15:01.111Z,87.33
2022-12-03T22:17:44.559Z,86.94
2022-12-03T22:20:28.023Z,86.73
2022-12-03T22:23:11.469Z,87.00
2022-12-03T22:26:05.177Z,85.90
2022-12-03T22:28:50.408Z,86.67
2022-12-03T22:31:33.966Z,87.06
2022-12-03T22:34:17.461Z,88.19
2022-12-03T22:37:00.952Z,88.12
2022-12-03T22:39:44.486Z,87.67
2022-12-03T22:42:28.037Z,86.74
2022-12-03T22:45:11.556Z,86.44
2022-12-03T22:47:55.043Z,85.82
2022-12-03T22:50:44.490Z,85.92
2022-12-03T22:53:28.013Z,86.55
2022-12-03T22:56:11.889Z,86.45
2022-12-03T22:58:55.737Z,86.42
2022-12-03T23:01:41.415Z,86.74
2022-12-03T23:04:24.996Z,86.06
2022-12-03T23:07:08.538Z,86.20
2022-12-03T23:09:52.225Z,86.78
2022-12-03T23:12:36.556Z,86.27
2022-12-03T23:15:20.042Z,86.75
2022-12-03T23:18:03.656Z,87.47
2022-12-03T23:20:51.489Z,86.70
2022-12-03T23:23:35.080Z,87.19
2022-12-03T23:26:19.468Z,87.41
2022-12-03T23:29:03.754Z,88.76
2022-12-03T23:31:47.294Z,87.42
2022-12-03T23:34:30.809Z,85.63
2022-12-03T23:37:14.343Z,86.89
2022-12-03T23:39:57.930Z,86.79
2022-12-03T23:42:41.513Z,86.95
2022-12-03T23:45:24.985Z,87.01
2022-12-03T23:48:08.725Z,86.66
2022-12-03T23:50:52.178Z,86.44
2022-12-03T23:53:37.620Z,86.20
2022-12-03T23:56:25.839Z,85.65
2022-12-03T23:59:09.479Z,85.92
